AFL1921 UNOO-UAAA
Flight info
| Callsign | AFL1921 |
|---|---|
| Flight time | 1h 48m |
| Altitude | 35000 |
| Route | ALODA6D ALODA N990 DAKIN M75 POBUR DCT KRG W333 LUKUS N170 GIREM W333 ETEDA ETEDA1Z |
| Aircraft | A321/M-SDE3FGHIRWY/LB1 |
Departure
| Time | 2026-05-04 15:56 |
|---|---|
| Airport | Omsk Central Airport (UNOO) |
Arrival
| Time | 2026-05-04 17:44 |
|---|---|
| Airport | Almaty International Airport (UAAA) |
| Time | Latitude | Longitude | Altitude | Speed | Heading |
|---|---|---|---|---|---|
| 2026-05-04 15:44 | 54.95932 | 73.31388 | 298 ft | 0 kts | 163° |
| 2026-05-04 15:49 | 54.95929 | 73.31391 | 298 ft | 1 kts | 150° |
| 2026-05-04 15:49 | 54.95925 | 73.31422 | 298 ft | 6 kts | 96° |
| 2026-05-04 15:50 | 54.95949 | 73.31513 | 298 ft | 10 kts | 51° |
| 2026-05-04 15:50 | 54.95986 | 73.31582 | 298 ft | 6 kts | 46° |
| 2026-05-04 15:50 | 54.96007 | 73.31619 | 300 ft | 2 kts | 46° |
| 2026-05-04 15:50 | 54.96012 | 73.31628 | 298 ft | 0 kts | 46° |
| 2026-05-04 15:51 | 54.96020 | 73.31643 | 298 ft | 5 kts | 46° |
| 2026-05-04 15:51 | 54.96062 | 73.31721 | 298 ft | 10 kts | 46° |
| 2026-05-04 15:51 | 54.96105 | 73.31798 | 300 ft | 8 kts | 46° |
| 2026-05-04 15:51 | 54.96146 | 73.31871 | 298 ft | 9 kts | 45° |
| 2026-05-04 15:52 | 54.96201 | 73.31970 | 298 ft | 13 kts | 46° |
| 2026-05-04 15:52 | 54.96279 | 73.32099 | 298 ft | 17 kts | 39° |
| 2026-05-04 15:52 | 54.96370 | 73.32218 | 298 ft | 14 kts | 31° |
| 2026-05-04 15:52 | 54.96447 | 73.32256 | 299 ft | 9 kts | 30° |
| 2026-05-04 15:53 | 54.96479 | 73.32352 | 298 ft | 12 kts | 74° |
| 2026-05-04 15:53 | 54.96500 | 73.32509 | 299 ft | 15 kts | 77° |
| 2026-05-04 15:53 | 54.96524 | 73.32695 | 298 ft | 17 kts | 78° |
| 2026-05-04 15:53 | 54.96551 | 73.32901 | 298 ft | 18 kts | 78° |
| 2026-05-04 15:54 | 54.96575 | 73.33019 | 298 ft | 9 kts | 52° |
| 2026-05-04 15:54 | 54.96633 | 73.33041 | 298 ft | 10 kts | 358° |
| 2026-05-04 15:54 | 54.96708 | 73.33015 | 298 ft | 12 kts | 346° |
| 2026-05-04 15:54 | 54.96800 | 73.32976 | 298 ft | 15 kts | 346° |
| 2026-05-04 15:55 | 54.96905 | 73.32934 | 298 ft | 12 kts | 346° |
| 2026-05-04 15:55 | 54.96954 | 73.32858 | 300 ft | 7 kts | 277° |
| 2026-05-04 15:55 | 54.96951 | 73.32815 | 302 ft | 0 kts | 258° |
| 2026-05-04 15:55 | 54.96948 | 73.32782 | 303 ft | 15 kts | 258° |
| 2026-05-04 15:56 | 54.96867 | 73.32183 | 310 ft | 85 kts | 257° |
| 2026-05-04 15:56 | 54.96686 | 73.30842 | 311 ft | 140 kts | 257° |
| 2026-05-04 15:56 | 54.96468 | 73.29062 | 745 ft | 148 kts | 258° |
| 2026-05-04 15:56 | 54.96300 | 73.27365 | 1456 ft | 144 kts | 254° |
| 2026-05-04 15:57 | 54.96059 | 73.25622 | 1828 ft | 153 kts | 255° |
| 2026-05-04 15:57 | 54.95808 | 73.23760 | 2166 ft | 164 kts | 253° |
| 2026-05-04 15:57 | 54.95621 | 73.22419 | 2360 ft | 173 kts | 253° |
| 2026-05-04 15:57 | 54.95208 | 73.19660 | 2828 ft | 178 kts | 249° |
| 2026-05-04 15:58 | 54.94789 | 73.18371 | 3007 ft | 188 kts | 234° |
| 2026-05-04 15:58 | 54.94130 | 73.16345 | 3388 ft | 198 kts | 240° |
| 2026-05-04 15:58 | 54.93526 | 73.14063 | 3672 ft | 218 kts | 245° |
| 2026-05-04 15:58 | 54.92956 | 73.11506 | 4079 ft | 235 kts | 248° |
| 2026-05-04 15:59 | 54.92440 | 73.08849 | 4629 ft | 232 kts | 248° |
| 2026-05-04 15:59 | 54.91746 | 73.06337 | 5412 ft | 231 kts | 231° |
| 2026-05-04 15:59 | 54.90472 | 73.04656 | 6182 ft | 233 kts | 210° |
| 2026-05-04 15:59 | 54.88999 | 73.03510 | 7084 ft | 234 kts | 207° |
| 2026-05-04 16:00 | 54.87475 | 73.02518 | 7773 ft | 238 kts | 203° |
| 2026-05-04 16:00 | 54.85897 | 73.01687 | 8621 ft | 237 kts | 201° |
| 2026-05-04 16:00 | 54.84248 | 73.00975 | 9221 ft | 244 kts | 198° |
| 2026-05-04 16:00 | 54.82555 | 73.00273 | 9727 ft | 257 kts | 198° |
| 2026-05-04 16:01 | 54.80801 | 72.99442 | 10181 ft | 257 kts | 209° |
| 2026-05-04 16:01 | 54.79147 | 72.98080 | 10432 ft | 270 kts | 211° |
| 2026-05-04 16:01 | 54.77305 | 72.96948 | 10457 ft | 295 kts | 200° |
| 2026-05-04 16:01 | 54.75194 | 72.96422 | 10532 ft | 315 kts | 181° |
| 2026-05-04 16:02 | 54.72980 | 72.96321 | 10854 ft | 325 kts | 185° |
| 2026-05-04 16:02 | 54.70656 | 72.96149 | 11002 ft | 344 kts | 186° |
| 2026-05-04 16:02 | 54.65735 | 72.97052 | 12147 ft | 355 kts | 178° |
| 2026-05-04 16:03 | 54.63292 | 72.97173 | 13072 ft | 346 kts | 185° |
| 2026-05-04 16:03 | 54.60910 | 72.97222 | 13667 ft | 356 kts | 176° |
| 2026-05-04 16:03 | 54.58451 | 72.98241 | 14046 ft | 369 kts | 170° |
| 2026-05-04 16:03 | 54.55933 | 72.99204 | 14579 ft | 371 kts | 174° |
| 2026-05-04 16:04 | 54.53376 | 72.99815 | 15084 ft | 370 kts | 175° |
| 2026-05-04 16:04 | 54.48180 | 73.00972 | 16050 ft | 380 kts | 177° |
| 2026-05-04 16:04 | 54.45546 | 73.01550 | 16558 ft | 384 kts | 177° |
| 2026-05-04 16:05 | 54.42887 | 73.02131 | 17071 ft | 387 kts | 176° |
| 2026-05-04 16:05 | 54.40194 | 73.02703 | 17547 ft | 389 kts | 180° |
| 2026-05-04 16:05 | 54.34761 | 73.02769 | 18530 ft | 394 kts | 194° |
| 2026-05-04 16:06 | 54.32178 | 73.01356 | 19086 ft | 386 kts | 211° |
| 2026-05-04 16:06 | 54.27718 | 72.92478 | 20245 ft | 376 kts | 251° |
| 2026-05-04 16:07 | 54.26455 | 72.86856 | 20833 ft | 380 kts | 251° |
| 2026-05-04 16:07 | 54.23564 | 72.74103 | 22116 ft | 386 kts | 251° |
| 2026-05-04 16:08 | 54.22586 | 72.69811 | 22551 ft | 388 kts | 251° |
| 2026-05-04 16:08 | 54.19607 | 72.56861 | 23560 ft | 394 kts | 251° |
| 2026-05-04 16:09 | 54.17460 | 72.48193 | 24305 ft | 402 kts | 242° |
| 2026-05-04 16:09 | 54.13494 | 72.41289 | 25028 ft | 420 kts | 217° |
| 2026-05-04 16:10 | 54.07894 | 72.37859 | 25706 ft | 439 kts | 197° |
| 2026-05-04 16:11 | 53.98846 | 72.34881 | 26671 ft | 444 kts | 198° |
| 2026-05-04 16:11 | 53.95804 | 72.33882 | 26953 ft | 447 kts | 197° |
| 2026-05-04 16:12 | 53.86573 | 72.30873 | 27805 ft | 453 kts | 197° |
| 2026-05-04 16:12 | 53.77243 | 72.27808 | 28676 ft | 457 kts | 198° |
| 2026-05-04 16:13 | 53.70963 | 72.25786 | 29223 ft | 461 kts | 197° |
| 2026-05-04 16:13 | 53.64637 | 72.24013 | 29921 ft | 465 kts | 191° |
| 2026-05-04 16:14 | 53.58130 | 72.24963 | 30562 ft | 478 kts | 175° |
| 2026-05-04 16:14 | 53.51593 | 72.27053 | 31236 ft | 478 kts | 176° |
| 2026-05-04 16:15 | 53.41802 | 72.30089 | 32215 ft | 476 kts | 176° |
| 2026-05-04 16:16 | 53.35286 | 72.32137 | 32814 ft | 476 kts | 176° |
| 2026-05-04 16:16 | 53.25534 | 72.35172 | 33690 ft | 476 kts | 176° |
| 2026-05-04 16:17 | 53.19014 | 72.37194 | 34261 ft | 475 kts | 176° |
| 2026-05-04 16:18 | 53.09270 | 72.40213 | 35009 ft | 475 kts | 175° |
| 2026-05-04 16:18 | 53.05980 | 72.41225 | 35089 ft | 473 kts | 175° |
| 2026-05-04 16:19 | 52.89890 | 72.46141 | 35101 ft | 472 kts | 175° |
| 2026-05-04 16:20 | 52.73713 | 72.51065 | 35112 ft | 473 kts | 175° |
| 2026-05-04 16:22 | 52.57513 | 72.55962 | 35111 ft | 473 kts | 174° |
| 2026-05-04 16:23 | 52.38095 | 72.61752 | 35113 ft | 473 kts | 175° |
| 2026-05-04 16:25 | 52.18658 | 72.67519 | 35119 ft | 474 kts | 174° |
| 2026-05-04 16:26 | 51.95946 | 72.74184 | 35113 ft | 474 kts | 174° |
| 2026-05-04 16:28 | 51.79703 | 72.78922 | 35118 ft | 475 kts | 174° |
| 2026-05-04 16:29 | 51.56916 | 72.85505 | 35131 ft | 475 kts | 174° |
| 2026-05-04 16:31 | 51.40628 | 72.90157 | 35140 ft | 475 kts | 174° |
| 2026-05-04 16:32 | 51.21132 | 72.95702 | 35150 ft | 473 kts | 173° |
| 2026-05-04 16:33 | 51.08126 | 72.99360 | 35148 ft | 474 kts | 174° |
| 2026-05-04 16:34 | 50.98359 | 73.02080 | 35152 ft | 475 kts | 174° |
| 2026-05-04 16:35 | 50.78821 | 73.07544 | 35166 ft | 474 kts | 174° |
| 2026-05-04 16:36 | 50.70168 | 73.09924 | 35168 ft | 474 kts | 174° |
| 2026-05-04 16:37 | 50.60410 | 73.12627 | 35166 ft | 475 kts | 174° |
| 2026-05-04 16:38 | 50.47406 | 73.16189 | 35180 ft | 474 kts | 174° |
| 2026-05-04 16:39 | 50.31175 | 73.20629 | 35182 ft | 474 kts | 174° |
| 2026-05-04 16:40 | 50.18165 | 73.24153 | 35184 ft | 474 kts | 174° |
| 2026-05-04 16:41 | 50.01934 | 73.28529 | 35194 ft | 473 kts | 174° |
| 2026-05-04 16:43 | 49.85717 | 73.32860 | 35205 ft | 472 kts | 173° |
| 2026-05-04 16:43 | 49.76011 | 73.35443 | 35193 ft | 471 kts | 173° |
| 2026-05-04 16:44 | 49.63306 | 73.40667 | 35195 ft | 477 kts | 161° |
| 2026-05-04 16:45 | 49.57123 | 73.44403 | 35184 ft | 477 kts | 161° |
| 2026-05-04 16:46 | 49.41655 | 73.53691 | 35200 ft | 477 kts | 161° |
| 2026-05-04 16:47 | 49.29340 | 73.61049 | 35197 ft | 476 kts | 161° |
| 2026-05-04 16:48 | 49.16996 | 73.68389 | 35187 ft | 476 kts | 161° |
| 2026-05-04 16:49 | 49.04645 | 73.75679 | 35189 ft | 476 kts | 161° |
| 2026-05-04 16:50 | 48.92309 | 73.82928 | 35186 ft | 475 kts | 161° |
| 2026-05-04 16:51 | 48.83050 | 73.88308 | 35175 ft | 475 kts | 161° |
| 2026-05-04 16:52 | 48.70713 | 73.95454 | 35174 ft | 474 kts | 161° |
| 2026-05-04 16:53 | 48.61465 | 74.00814 | 35181 ft | 474 kts | 161° |
| 2026-05-04 16:54 | 48.49146 | 74.07886 | 35174 ft | 473 kts | 160° |
| 2026-05-04 16:55 | 48.30696 | 74.18441 | 35175 ft | 473 kts | 161° |
| 2026-05-04 16:56 | 48.15336 | 74.27138 | 35144 ft | 471 kts | 161° |
| 2026-05-04 16:57 | 48.06124 | 74.32357 | 35130 ft | 472 kts | 160° |
| 2026-05-04 16:58 | 47.93845 | 74.39372 | 35131 ft | 472 kts | 160° |
| 2026-05-04 17:00 | 47.75428 | 74.49802 | 35145 ft | 471 kts | 161° |
| 2026-05-04 17:01 | 47.60173 | 74.58391 | 35131 ft | 470 kts | 161° |
| 2026-05-04 17:02 | 47.47956 | 74.65220 | 35125 ft | 469 kts | 161° |
| 2026-05-04 17:03 | 47.38826 | 74.70370 | 35123 ft | 468 kts | 161° |
| 2026-05-04 17:03 | 47.29686 | 74.75466 | 35119 ft | 466 kts | 161° |
| 2026-05-04 17:04 | 47.17549 | 74.82237 | 35101 ft | 466 kts | 161° |
| 2026-05-04 17:05 | 47.05432 | 74.88950 | 35112 ft | 465 kts | 161° |
| 2026-05-04 17:06 | 46.96358 | 74.93950 | 35110 ft | 464 kts | 161° |
| 2026-05-04 17:07 | 46.88311 | 74.98369 | 35110 ft | 464 kts | 161° |
| 2026-05-04 17:07 | 46.81339 | 75.02603 | 35110 ft | 464 kts | 158° |
| 2026-05-04 17:08 | 46.72505 | 75.08413 | 35113 ft | 463 kts | 158° |
| 2026-05-04 17:09 | 46.66592 | 75.12166 | 35117 ft | 464 kts | 159° |
| 2026-05-04 17:09 | 46.60672 | 75.15881 | 35119 ft | 463 kts | 160° |
| 2026-05-04 17:10 | 46.45882 | 75.25160 | 35113 ft | 463 kts | 159° |
| 2026-05-04 17:11 | 46.39964 | 75.28871 | 35113 ft | 463 kts | 158° |
| 2026-05-04 17:12 | 46.31125 | 75.34375 | 35114 ft | 462 kts | 159° |
| 2026-05-04 17:13 | 46.16346 | 75.43575 | 35109 ft | 462 kts | 159° |
| 2026-05-04 17:14 | 46.04542 | 75.50922 | 35120 ft | 462 kts | 159° |
| 2026-05-04 17:15 | 45.95692 | 75.56420 | 35121 ft | 462 kts | 159° |
| 2026-05-04 17:16 | 45.83880 | 75.63714 | 35127 ft | 461 kts | 160° |
| 2026-05-04 17:17 | 45.73061 | 75.70361 | 35111 ft | 460 kts | 160° |
| 2026-05-04 17:18 | 45.61310 | 75.77561 | 35108 ft | 459 kts | 160° |
| 2026-05-04 17:19 | 45.49579 | 75.84725 | 35116 ft | 458 kts | 160° |
| 2026-05-04 17:20 | 45.37839 | 75.91840 | 35126 ft | 458 kts | 159° |
| 2026-05-04 17:20 | 45.29047 | 75.97160 | 35131 ft | 457 kts | 160° |
| 2026-05-04 17:21 | 45.17365 | 76.04189 | 35136 ft | 455 kts | 160° |
| 2026-05-04 17:22 | 45.11586 | 76.07670 | 35148 ft | 454 kts | 160° |
| 2026-05-04 17:23 | 45.00011 | 76.14601 | 35126 ft | 450 kts | 160° |
| 2026-05-04 17:24 | 44.91348 | 76.19766 | 35122 ft | 449 kts | 159° |
| 2026-05-04 17:25 | 44.79831 | 76.26591 | 35114 ft | 448 kts | 160° |
| 2026-05-04 17:25 | 44.73949 | 76.30063 | 34677 ft | 466 kts | 160° |
| 2026-05-04 17:26 | 44.67955 | 76.33602 | 33349 ft | 468 kts | 160° |
| 2026-05-04 17:26 | 44.59011 | 76.38883 | 30939 ft | 467 kts | 160° |
| 2026-05-04 17:27 | 44.53050 | 76.42370 | 29496 ft | 465 kts | 160° |
| 2026-05-04 17:27 | 44.47047 | 76.45871 | 27753 ft | 468 kts | 160° |
| 2026-05-04 17:28 | 44.41087 | 76.49358 | 26498 ft | 460 kts | 159° |
| 2026-05-04 17:29 | 44.32534 | 76.55046 | 24656 ft | 450 kts | 145° |
| 2026-05-04 17:29 | 44.25141 | 76.62818 | 22958 ft | 436 kts | 144° |
| 2026-05-04 17:30 | 44.18028 | 76.70263 | 21439 ft | 417 kts | 144° |
| 2026-05-04 17:31 | 44.13450 | 76.75034 | 20538 ft | 406 kts | 144° |
| 2026-05-04 17:31 | 44.06821 | 76.81953 | 19208 ft | 388 kts | 143° |
| 2026-05-04 17:32 | 44.02541 | 76.86404 | 18317 ft | 380 kts | 143° |
| 2026-05-04 17:33 | 43.96334 | 76.92845 | 17316 ft | 359 kts | 143° |
| 2026-05-04 17:33 | 43.94357 | 76.94886 | 17076 ft | 350 kts | 143° |
| 2026-05-04 17:34 | 43.88611 | 77.00817 | 16324 ft | 334 kts | 143° |
| 2026-05-04 17:34 | 43.86765 | 77.02729 | 15770 ft | 328 kts | 143° |
| 2026-05-04 17:35 | 43.81268 | 77.08397 | 14321 ft | 322 kts | 143° |
| 2026-05-04 17:35 | 43.77670 | 77.12097 | 13446 ft | 322 kts | 143° |
| 2026-05-04 17:35 | 43.75881 | 77.13944 | 13136 ft | 319 kts | 143° |
| 2026-05-04 17:36 | 43.74113 | 77.15765 | 12664 ft | 314 kts | 143° |
| 2026-05-04 17:36 | 43.72369 | 77.17552 | 11981 ft | 308 kts | 143° |
| 2026-05-04 17:36 | 43.70630 | 77.19330 | 11439 ft | 313 kts | 143° |
| 2026-05-04 17:36 | 43.68888 | 77.21111 | 10986 ft | 313 kts | 142° |
| 2026-05-04 17:37 | 43.67152 | 77.22893 | 10645 ft | 310 kts | 142° |
| 2026-05-04 17:37 | 43.65414 | 77.24673 | 10195 ft | 310 kts | 142° |
| 2026-05-04 17:37 | 43.63715 | 77.26408 | 9841 ft | 307 kts | 142° |
| 2026-05-04 17:37 | 43.62025 | 77.28131 | 9667 ft | 297 kts | 142° |
| 2026-05-04 17:38 | 43.60393 | 77.29791 | 9502 ft | 288 kts | 141° |
| 2026-05-04 17:38 | 43.58793 | 77.31418 | 9235 ft | 283 kts | 142° |
| 2026-05-04 17:38 | 43.57171 | 77.32982 | 8854 ft | 283 kts | 143° |
| 2026-05-04 17:38 | 43.55538 | 77.34512 | 8430 ft | 284 kts | 144° |
| 2026-05-04 17:39 | 43.51869 | 77.35480 | 7600 ft | 279 kts | 202° |
| 2026-05-04 17:39 | 43.50227 | 77.34087 | 7045 ft | 280 kts | 226° |
| 2026-05-04 17:39 | 43.49020 | 77.32000 | 6627 ft | 278 kts | 238° |
| 2026-05-04 17:40 | 43.47958 | 77.29820 | 6241 ft | 268 kts | 238° |
| 2026-05-04 17:40 | 43.46951 | 77.27763 | 5907 ft | 251 kts | 238° |
| 2026-05-04 17:40 | 43.46001 | 77.25832 | 5615 ft | 240 kts | 238° |
| 2026-05-04 17:40 | 43.45084 | 77.23960 | 5262 ft | 228 kts | 238° |
| 2026-05-04 17:41 | 43.44212 | 77.22182 | 4971 ft | 221 kts | 238° |
| 2026-05-04 17:41 | 43.43369 | 77.20471 | 4707 ft | 211 kts | 238° |
| 2026-05-04 17:41 | 43.42565 | 77.18842 | 4415 ft | 202 kts | 238° |
| 2026-05-04 17:41 | 43.41799 | 77.17289 | 4141 ft | 190 kts | 237° |
| 2026-05-04 17:42 | 43.41099 | 77.15865 | 3930 ft | 171 kts | 237° |
| 2026-05-04 17:42 | 43.40465 | 77.14582 | 3703 ft | 157 kts | 237° |
| 2026-05-04 17:42 | 43.39864 | 77.13366 | 3504 ft | 151 kts | 237° |
| 2026-05-04 17:42 | 43.39279 | 77.12178 | 3297 ft | 149 kts | 238° |
| 2026-05-04 17:43 | 43.38701 | 77.11006 | 3100 ft | 147 kts | 238° |
| 2026-05-04 17:43 | 43.38127 | 77.09844 | 2903 ft | 147 kts | 238° |
| 2026-05-04 17:43 | 43.37558 | 77.08688 | 2724 ft | 146 kts | 236° |
| 2026-05-04 17:43 | 43.36985 | 77.07531 | 2516 ft | 146 kts | 238° |
| 2026-05-04 17:44 | 43.36421 | 77.06373 | 2325 ft | 145 kts | 237° |
| 2026-05-04 17:44 | 43.35880 | 77.05263 | 2241 ft | 131 kts | 238° |
| 2026-05-04 17:44 | 43.35425 | 77.04349 | 2230 ft | 94 kts | 234° |
| 2026-05-04 17:44 | 43.35148 | 77.03808 | 2228 ft | 44 kts | 236° |
| 2026-05-04 17:45 | 43.35050 | 77.03610 | 2230 ft | 18 kts | 236° |
| 2026-05-04 17:45 | 43.34962 | 77.03430 | 2229 ft | 27 kts | 236° |
| 2026-05-04 17:45 | 43.34843 | 77.03183 | 2227 ft | 31 kts | 242° |
| 2026-05-04 17:45 | 43.34793 | 77.02986 | 2228 ft | 23 kts | 259° |
| 2026-05-04 17:46 | 43.34777 | 77.02732 | 2227 ft | 26 kts | 268° |
| 2026-05-04 17:46 | 43.34771 | 77.02584 | 2229 ft | 11 kts | 263° |
| 2026-05-04 17:46 | 43.34771 | 77.02485 | 2226 ft | 10 kts | 274° |
| 2026-05-04 17:46 | 43.34779 | 77.02354 | 2227 ft | 18 kts | 274° |
| 2026-05-04 17:47 | 43.34791 | 77.02140 | 2227 ft | 26 kts | 274° |
| 2026-05-04 17:47 | 43.34802 | 77.01901 | 2228 ft | 24 kts | 274° |
| 2026-05-04 17:47 | 43.34812 | 77.01682 | 2229 ft | 19 kts | 274° |
| 2026-05-04 17:47 | 43.34819 | 77.01561 | 2229 ft | 5 kts | 281° |
| 2026-05-04 17:48 | 43.34842 | 77.01525 | 2229 ft | 5 kts | 330° |
| 2026-05-04 17:48 | 43.34872 | 77.01504 | 2232 ft | 4 kts | 334° |
| 2026-05-04 17:48 | 43.34893 | 77.01486 | 2229 ft | 3 kts | 322° |
| 2026-05-04 17:48 | 43.34902 | 77.01456 | 2229 ft | 5 kts | 275° |
| 2026-05-04 17:49 | 43.34889 | 77.01398 | 2229 ft | 4 kts | 248° |
| 2026-05-04 17:49 | 43.34885 | 77.01384 | 2225 ft | 1 kts | 247° |
| 2026-05-04 17:49 | 43.34880 | 77.01370 | 2233 ft | 2 kts | 246° |
| 2026-05-04 17:49 | 43.34875 | 77.01355 | 2229 ft | 0 kts | 246° |